DEXST EDDL-EDKF
Flight info
| Callsign | DEXST |
|---|---|
| Flight time | 0h 17m |
| Altitude | |
| Route | |
| Aircraft | BE36 |
Departure
| Time | 2026-05-07 20:52 |
|---|---|
| Airport | Düsseldorf Airport (EDDL) |
Arrival
| Time | 2026-05-07 21:10 |
|---|---|
| Airport | Bergneustadt-Auf dem Dümpel Airfield (EDKF) |
| Time | Latitude | Longitude | Altitude | Speed | Heading |
|---|---|---|---|---|---|
| 2026-05-07 20:52 | 51.25767 | 6.76965 | 1126 ft | 152 kts | 240° |
| 2026-05-07 20:52 | 51.25221 | 6.75513 | 1110 ft | 151 kts | 243° |
| 2026-05-07 20:52 | 51.25274 | 6.74011 | 1153 ft | 141 kts | 304° |
| 2026-05-07 20:52 | 51.25882 | 6.72815 | 955 ft | 132 kts | 312° |
| 2026-05-07 20:53 | 51.26552 | 6.72407 | 839 ft | 97 kts | 19° |
| 2026-05-07 20:53 | 51.26985 | 6.73179 | 554 ft | 96 kts | 54° |
| 2026-05-07 20:53 | 51.27376 | 6.73989 | 368 ft | 90 kts | 48° |
| 2026-05-07 20:53 | 51.27766 | 6.74791 | 239 ft | 94 kts | 51° |
| 2026-05-07 20:54 | 51.28154 | 6.75607 | 139 ft | 88 kts | 51° |
| 2026-05-07 20:54 | 51.28455 | 6.76234 | 116 ft | 66 kts | 53° |
| 2026-05-07 20:54 | 51.28829 | 6.77004 | 285 ft | 102 kts | 52° |
| 2026-05-07 20:54 | 51.29294 | 6.77902 | 692 ft | 106 kts | 51° |
| 2026-05-07 20:55 | 51.29744 | 6.78847 | 1135 ft | 107 kts | 53° |
| 2026-05-07 20:55 | 51.30141 | 6.79794 | 1523 ft | 101 kts | 65° |
| 2026-05-07 20:55 | 51.30369 | 6.80817 | 1864 ft | 99 kts | 87° |
| 2026-05-07 20:55 | 51.30185 | 6.81860 | 2204 ft | 98 kts | 116° |
| 2026-05-07 20:56 | 51.29839 | 6.82965 | 2294 ft | 125 kts | 117° |
| 2026-05-07 20:56 | 51.29416 | 6.84302 | 2310 ft | 143 kts | 116° |
| 2026-05-07 20:56 | 51.28966 | 6.85803 | 2316 ft | 156 kts | 115° |
| 2026-05-07 20:56 | 51.28498 | 6.87449 | 2316 ft | 169 kts | 114° |
| 2026-05-07 20:57 | 51.28010 | 6.89201 | 2313 ft | 176 kts | 114° |
| 2026-05-07 20:57 | 51.27510 | 6.91016 | 2303 ft | 180 kts | 114° |
| 2026-05-07 20:57 | 51.27001 | 6.92864 | 2300 ft | 183 kts | 114° |
| 2026-05-07 20:57 | 51.26483 | 6.94720 | 2294 ft | 184 kts | 114° |
| 2026-05-07 20:58 | 51.25971 | 6.96560 | 2290 ft | 184 kts | 114° |
| 2026-05-07 20:58 | 51.25454 | 6.98433 | 2289 ft | 184 kts | 114° |
| 2026-05-07 20:58 | 51.24939 | 7.00307 | 2290 ft | 184 kts | 114° |
| 2026-05-07 20:58 | 51.24406 | 7.02240 | 2292 ft | 185 kts | 114° |
| 2026-05-07 20:59 | 51.23903 | 7.04056 | 2296 ft | 185 kts | 114° |
| 2026-05-07 20:59 | 51.23388 | 7.05917 | 2369 ft | 181 kts | 114° |
| 2026-05-07 20:59 | 51.22886 | 7.07731 | 2468 ft | 178 kts | 114° |
| 2026-05-07 20:59 | 51.22381 | 7.09551 | 2485 ft | 181 kts | 114° |
| 2026-05-07 21:00 | 51.21867 | 7.11390 | 2492 ft | 182 kts | 114° |
| 2026-05-07 21:00 | 51.21350 | 7.13243 | 2498 ft | 183 kts | 114° |
| 2026-05-07 21:00 | 51.20848 | 7.15046 | 2499 ft | 184 kts | 114° |
| 2026-05-07 21:00 | 51.20330 | 7.16905 | 2497 ft | 184 kts | 114° |
| 2026-05-07 21:01 | 51.19809 | 7.18771 | 2498 ft | 184 kts | 114° |
| 2026-05-07 21:01 | 51.19287 | 7.20635 | 2499 ft | 184 kts | 114° |
| 2026-05-07 21:01 | 51.18765 | 7.22502 | 2500 ft | 185 kts | 114° |
| 2026-05-07 21:01 | 51.18242 | 7.24370 | 2500 ft | 185 kts | 114° |
| 2026-05-07 21:02 | 51.17719 | 7.26239 | 2500 ft | 185 kts | 114° |
| 2026-05-07 21:02 | 51.17194 | 7.28109 | 2501 ft | 185 kts | 114° |
| 2026-05-07 21:02 | 51.16671 | 7.29977 | 2501 ft | 185 kts | 114° |
| 2026-05-07 21:02 | 51.16154 | 7.31820 | 2502 ft | 185 kts | 114° |
| 2026-05-07 21:03 | 51.15630 | 7.33688 | 2501 ft | 185 kts | 114° |
| 2026-05-07 21:03 | 51.15032 | 7.35492 | 2499 ft | 184 kts | 132° |
| 2026-05-07 21:03 | 51.14289 | 7.37112 | 2549 ft | 181 kts | 122° |
| 2026-05-07 21:03 | 51.13705 | 7.38922 | 2499 ft | 185 kts | 115° |
| 2026-05-07 21:04 | 51.13186 | 7.40796 | 2493 ft | 185 kts | 113° |
| 2026-05-07 21:04 | 51.12688 | 7.42684 | 2495 ft | 185 kts | 112° |
| 2026-05-07 21:04 | 51.12201 | 7.44569 | 2499 ft | 185 kts | 112° |
| 2026-05-07 21:04 | 51.11716 | 7.46461 | 2502 ft | 185 kts | 112° |
| 2026-05-07 21:05 | 51.11239 | 7.48330 | 2504 ft | 185 kts | 112° |
| 2026-05-07 21:05 | 51.10756 | 7.50224 | 2505 ft | 185 kts | 112° |
| 2026-05-07 21:05 | 51.10273 | 7.52118 | 2504 ft | 185 kts | 112° |
| 2026-05-07 21:05 | 51.09803 | 7.53951 | 2499 ft | 171 kts | 112° |
| 2026-05-07 21:06 | 51.09372 | 7.55634 | 2496 ft | 159 kts | 112° |
| 2026-05-07 21:06 | 51.08968 | 7.57217 | 2496 ft | 151 kts | 112° |
| 2026-05-07 21:06 | 51.08581 | 7.58740 | 2496 ft | 146 kts | 112° |
| 2026-05-07 21:06 | 51.08206 | 7.60220 | 2497 ft | 143 kts | 112° |
| 2026-05-07 21:07 | 51.07844 | 7.61646 | 2498 ft | 141 kts | 112° |
| 2026-05-07 21:07 | 51.07481 | 7.63081 | 2498 ft | 139 kts | 112° |
| 2026-05-07 21:07 | 51.07121 | 7.64501 | 2500 ft | 138 kts | 112° |
| 2026-05-07 21:07 | 51.06763 | 7.65907 | 2499 ft | 137 kts | 112° |
| 2026-05-07 21:08 | 51.06404 | 7.67312 | 2502 ft | 137 kts | 112° |
| 2026-05-07 21:08 | 51.05961 | 7.68592 | 2593 ft | 127 kts | 140° |
| 2026-05-07 21:08 | 51.05160 | 7.68870 | 2497 ft | 121 kts | 200° |
| 2026-05-07 21:08 | 51.04426 | 7.68358 | 2355 ft | 111 kts | 175° |
| 2026-05-07 21:09 | 51.03929 | 7.69002 | 2206 ft | 93 kts | 100° |
| 2026-05-07 21:09 | 51.04299 | 7.69686 | 1953 ft | 93 kts | 25° |
| 2026-05-07 21:09 | 51.04853 | 7.70269 | 1650 ft | 95 kts | 43° |
| 2026-05-07 21:09 | 51.05272 | 7.70817 | 1597 ft | 57 kts | 38° |
| 2026-05-07 21:10 | 51.05410 | 7.70991 | 1606 ft | 8 kts | 352° |
| 2026-05-07 21:10 | 51.05358 | 7.70859 | 1600 ft | 22 kts | 248° |
| 2026-05-07 21:10 | 51.05333 | 7.70786 | 1605 ft | 0 kts | 232° |